Accueil
METAR-TAF:

METAR-TAF

Aéroports :

Paganella, Italie

latitude: 46-09N, longitude: 011-02E, altitude: 2125 m

Observation

Le bulletin a été fait il y a 1 heure et 0 minutes, à 00:55 UTC
Vent 10 kt de sud
Température 1°C
Humidité 100%
Pression 1009 hPa
Visibilité inférieure à 50 m
pluie, brouillard

METAR: LIVP 240055Z 18010KT 0000 RA FG VV/// 01/01 Q1009 RMK MON INVIS VAL INVIS VIS MIN 0000

Heure: 03:55 (01:55 UTC)


TAF: absent

Observations et prévisions météorologiques de plus de 4000 aéroports (messages METAR et TAF).

Les stations disponibles sont représentées par des disques jaunes et rouges sur la carte.

Passer la souris dessus pour voir le nom de la station.

Cliquer dessus pour voir les observations et prévisions météorologiques.

Pour changer de carte: cliquez sur les boutons verts avec une croix noire pour zoomer, sur le bouton vert avec un tiret pour effectuer un zoom arrière, ou sur les flèches vertes pour les cartes adjacentes.


METAR-TAF: